sensor_id;sensor_type;location;lat;lon;timestamp;temperature;humidity
15184;DHT22;7693;49.266;7.104;2022-12-18T06:36:13;-7.70;99.90
15184;DHT22;7693;49.266;7.104;2022-12-18T06:38:41;-7.70;99.90
15184;DHT22;7693;49.266;7.104;2022-12-18T06:41:08;-7.70;99.90
15184;DHT22;7693;49.266;7.104;2022-12-18T06:43:34;-7.60;99.90
15184;DHT22;7693;49.266;7.104;2022-12-18T06:46:00;-7.60;99.90
15184;DHT22;7693;49.266;7.104;2022-12-18T06:48:26;-7.60;99.90
15184;DHT22;7693;49.266;7.104;2022-12-18T06:50:52;-7.60;99.90
15184;DHT22;7693;49.266;7.104;2022-12-18T06:53:17;-7.60;99.90
15184;DHT22;7693;49.266;7.104;2022-12-18T06:55:43;-7.60;99.90
15184;DHT22;7693;49.266;7.104;2022-12-18T06:58:09;-7.60;99.90
15184;DHT22;7693;49.266;7.104;2022-12-18T07:00:34;-7.60;99.90
15184;DHT22;7693;49.266;7.104;2022-12-18T07:03:00;-7.50;99.90
15184;DHT22;7693;49.266;7.104;2022-12-18T07:05:26;-7.50;99.90
15184;DHT22;7693;49.266;7.104;2022-12-18T07:07:51;-7.50;99.90
15184;DHT22;7693;49.266;7.104;2022-12-18T07:10:17;-7.50;99.90
15184;DHT22;7693;49.266;7.104;2022-12-18T07:12:43;-7.50;99.90
15184;DHT22;7693;49.266;7.104;2022-12-18T07:15:09;-7.50;99.90
15184;DHT22;7693;49.266;7.104;2022-12-18T07:17:35;-7.40;99.90
15184;DHT22;7693;49.266;7.104;2022-12-18T07:20:00;-7.40;99.90
15184;DHT22;7693;49.266;7.104;2022-12-18T07:22:26;-7.40;99.90
15184;DHT22;7693;49.266;7.104;2022-12-18T07:24:52;-7.30;99.90
15184;DHT22;7693;49.266;7.104;2022-12-18T07:27:18;-7.30;99.90
15184;DHT22;7693;49.266;7.104;2022-12-18T07:29:43;-7.20;99.90
15184;DHT22;7693;49.266;7.104;2022-12-18T07:32:09;-7.20;99.90
15184;DHT22;7693;49.266;7.104;2022-12-18T07:34:34;-7.20;99.90
15184;DHT22;7693;49.266;7.104;2022-12-18T07:37:00;-7.10;99.90
15184;DHT22;7693;49.266;7.104;2022-12-18T07:39:26;-7.00;99.90
15184;DHT22;7693;49.266;7.104;2022-12-18T07:41:51;-7.00;99.90
15184;DHT22;7693;49.266;7.104;2022-12-18T07:44:36;-6.90;99.90
15184;DHT22;7693;49.266;7.104;2022-12-18T07:47:02;-6.70;99.90
15184;DHT22;7693;49.266;7.104;2022-12-18T07:49:27;-6.70;99.90
15184;DHT22;7693;49.266;7.104;2022-12-18T07:51:57;-6.60;99.90
15184;DHT22;7693;49.266;7.104;2022-12-18T07:54:24;-6.60;99.90
15184;DHT22;7693;49.266;7.104;2022-12-18T07:56:50;-6.60;99.90
15184;DHT22;7693;49.266;7.104;2022-12-18T07:59:16;-6.60;99.90
15184;DHT22;7693;49.266;7.104;2022-12-18T08:01:42;-6.60;99.90
15184;DHT22;7693;49.266;7.104;2022-12-18T08:04:07;-6.60;99.90
15184;DHT22;7693;49.266;7.104;2022-12-18T08:06:33;-6.50;99.90
15184;DHT22;7693;49.266;7.104;2022-12-18T08:08:58;-6.50;99.90
15184;DHT22;7693;49.266;7.104;2022-12-18T08:11:26;-6.50;99.90
15184;DHT22;7693;49.266;7.104;2022-12-18T08:13:53;-6.50;99.90
15184;DHT22;7693;49.266;7.104;2022-12-18T08:16:18;-6.40;99.90
15184;DHT22;7693;49.266;7.104;2022-12-18T08:18:44;-6.50;99.90
15184;DHT22;7693;49.266;7.104;2022-12-18T08:21:16;-6.40;99.90
15184;DHT22;7693;49.266;7.104;2022-12-18T08:23:42;-6.40;99.90
15184;DHT22;7693;49.266;7.104;2022-12-18T08:26:08;-6.40;99.90
15184;DHT22;7693;49.266;7.104;2022-12-18T08:28:34;-6.40;99.90
15184;DHT22;7693;49.266;7.104;2022-12-18T08:31:00;-6.50;99.90
15184;DHT22;7693;49.266;7.104;2022-12-18T08:33:26;-6.50;99.90
15184;DHT22;7693;49.266;7.104;2022-12-18T08:35:52;-6.50;99.90
15184;DHT22;7693;49.266;7.104;2022-12-18T08:38:18;-6.50;99.90
15184;DHT22;7693;49.266;7.104;2022-12-18T08:40:44;-6.50;99.90
15184;DHT22;7693;49.266;7.104;2022-12-18T08:43:10;-6.40;99.90
15184;DHT22;7693;49.266;7.104;2022-12-18T08:45:55;-6.30;99.90
15184;DHT22;7693;49.266;7.104;2022-12-18T08:48:21;-6.30;99.90
15184;DHT22;7693;49.266;7.104;2022-12-18T08:50:59;-6.20;99.90
15184;DHT22;7693;49.266;7.104;2022-12-18T08:53:25;-6.20;99.90
15184;DHT22;7693;49.266;7.104;2022-12-18T08:55:52;-6.10;99.90
15184;DHT22;7693;49.266;7.104;2022-12-18T08:58:18;-6.00;99.90
15184;DHT22;7693;49.266;7.104;2022-12-18T09:00:43;-6.00;99.90
15184;DHT22;7693;49.266;7.104;2022-12-18T09:03:17;-6.00;99.90
15184;DHT22;7693;49.266;7.104;2022-12-18T09:05:45;-5.90;99.90
15184;DHT22;7693;49.266;7.104;2022-12-18T09:08:11;-5.80;99.90
15184;DHT22;7693;49.266;7.104;2022-12-18T09:10:47;-5.80;99.90
15184;DHT22;7693;49.266;7.104;2022-12-18T09:13:14;-5.70;99.90
15184;DHT22;7693;49.266;7.104;2022-12-18T09:15:51;-5.60;99.90
15184;DHT22;7693;49.266;7.104;2022-12-18T09:18:19;-5.50;99.90
15184;DHT22;7693;49.266;7.104;2022-12-18T09:20:46;-5.50;99.90
15184;DHT22;7693;49.266;7.104;2022-12-18T09:23:12;-5.40;99.90
15184;DHT22;7693;49.266;7.104;2022-12-18T09:25:38;-5.30;99.90
15184;DHT22;7693;49.266;7.104;2022-12-18T09:28:11;-5.20;99.90
15184;DHT22;7693;49.266;7.104;2022-12-18T09:30:41;-5.20;99.90
15184;DHT22;7693;49.266;7.104;2022-12-18T09:33:07;-5.10;99.90
15184;DHT22;7693;49.266;7.104;2022-12-18T09:35:39;-5.10;99.90
15184;DHT22;7693;49.266;7.104;2022-12-18T09:38:05;-5.10;99.90
15184;DHT22;7693;49.266;7.104;2022-12-18T09:40:43;-5.00;99.90
15184;DHT22;7693;49.266;7.104;2022-12-18T09:43:18;-5.00;99.90
15184;DHT22;7693;49.266;7.104;2022-12-18T09:45:49;-5.00;99.90
15184;DHT22;7693;49.266;7.104;2022-12-18T09:48:25;-5.00;99.90
15184;DHT22;7693;49.266;7.104;2022-12-18T09:50:55;-5.00;99.90
15184;DHT22;7693;49.266;7.104;2022-12-18T09:53:25;-5.00;99.90
15184;DHT22;7693;49.266;7.104;2022-12-18T09:55:52;-5.00;99.90
15184;DHT22;7693;49.266;7.104;2022-12-18T10:00:54;-5.00;99.90
15184;DHT22;7693;49.266;7.104;2022-12-18T10:03:20;-5.00;99.90
15184;DHT22;7693;49.266;7.104;2022-12-18T10:14:00;-4.80;99.90
15184;DHT22;7693;49.266;7.104;2022-12-18T10:20:09;-4.70;99.90
15184;DHT22;7693;49.266;7.104;2022-12-18T10:24:48;-4.80;99.90
15184;DHT22;7693;49.266;7.104;2022-12-18T10:27:24;-4.80;99.90
15184;DHT22;7693;49.266;7.104;2022-12-18T10:29:51;-4.80;99.90
15184;DHT22;7693;49.266;7.104;2022-12-18T10:32:19;-4.80;99.90
15184;DHT22;7693;49.266;7.104;2022-12-18T10:34:50;-4.70;99.90
15184;DHT22;7693;49.266;7.104;2022-12-18T10:37:18;-4.70;99.90
15184;DHT22;7693;49.266;7.104;2022-12-18T10:39:45;-4.80;99.90
15184;DHT22;7693;49.266;7.104;2022-12-18T10:42:17;-4.70;99.90
15184;DHT22;7693;49.266;7.104;2022-12-18T10:44:44;-4.70;99.90
15184;DHT22;7693;49.266;7.104;2022-12-18T10:47:15;-4.70;99.90
15184;DHT22;7693;49.266;7.104;2022-12-18T10:49:50;-4.70;99.90
15184;DHT22;7693;49.266;7.104;2022-12-18T10:52:21;-4.60;99.90
15184;DHT22;7693;49.266;7.104;2022-12-18T10:55:00;-4.70;99.90
15184;DHT22;7693;49.266;7.104;2022-12-18T10:57:38;-4.60;99.90
15184;DHT22;7693;49.266;7.104;2022-12-18T11:00:41;-4.60;99.90
15184;DHT22;7693;49.266;7.104;2022-12-18T11:03:34;-4.60;99.90
15184;DHT22;7693;49.266;7.104;2022-12-18T11:06:12;-4.50;99.90
15184;DHT22;7693;49.266;7.104;2022-12-18T11:08:39;-4.40;99.90
15184;DHT22;7693;49.266;7.104;2022-12-18T11:11:20;-4.40;99.90
15184;DHT22;7693;49.266;7.104;2022-12-18T11:14:00;-4.30;99.90
15184;DHT22;7693;49.266;7.104;2022-12-18T11:16:28;-4.30;99.90
15184;DHT22;7693;49.266;7.104;2022-12-18T11:19:13;-4.20;99.90
15184;DHT22;7693;49.266;7.104;2022-12-18T11:21:40;-4.10;99.90
15184;DHT22;7693;49.266;7.104;2022-12-18T11:24:20;-4.00;99.90
15184;DHT22;7693;49.266;7.104;2022-12-18T11:26:46;-4.00;99.90
15184;DHT22;7693;49.266;7.104;2022-12-18T11:29:18;-4.00;99.90
15184;DHT22;7693;49.266;7.104;2022-12-18T11:31:43;-4.00;99.90
15184;DHT22;7693;49.266;7.104;2022-12-18T11:34:28;-4.00;99.90
15184;DHT22;7693;49.266;7.104;2022-12-18T11:36:57;-4.10;99.90
15184;DHT22;7693;49.266;7.104;2022-12-18T11:39:52;-4.10;99.90
15184;DHT22;7693;49.266;7.104;2022-12-18T11:47:51;-3.90;99.90
15184;DHT22;7693;49.266;7.104;2022-12-18T11:50:21;-3.80;99.90
15184;DHT22;7693;49.266;7.104;2022-12-18T11:52:49;-3.80;99.90
15184;DHT22;7693;49.266;7.104;2022-12-18T11:55:27;-3.70;99.90
15184;DHT22;7693;49.266;7.104;2022-12-18T12:00:31;-3.60;99.90
15184;DHT22;7693;49.266;7.104;2022-12-18T12:08:30;-3.60;99.90
15184;DHT22;7693;49.266;7.104;2022-12-18T15:22:30;-2.70;99.90
15184;DHT22;7693;49.266;7.104;2022-12-18T15:24:59;-2.70;99.90
15184;DHT22;7693;49.266;7.104;2022-12-18T15:27:28;-2.70;99.90
15184;DHT22;7693;49.266;7.104;2022-12-18T15:32:36;-2.60;99.90
15184;DHT22;7693;49.266;7.104;2022-12-18T15:35:23;-2.70;99.90
15184;DHT22;7693;49.266;7.104;2022-12-18T15:37:50;-2.60;99.90
15184;DHT22;7693;49.266;7.104;2022-12-18T15:40:22;-2.70;99.90
15184;DHT22;7693;49.266;7.104;2022-12-18T15:42:52;-2.70;99.90
15184;DHT22;7693;49.266;7.104;2022-12-18T15:45:37;-2.60;99.90
15184;DHT22;7693;49.266;7.104;2022-12-18T15:48:21;-2.60;99.90
15184;DHT22;7693;49.266;7.104;2022-12-18T15:50:46;-2.60;99.90
15184;DHT22;7693;49.266;7.104;2022-12-18T15:53:12;-2.60;99.90
15184;DHT22;7693;49.266;7.104;2022-12-18T15:55:38;-2.60;99.90
15184;DHT22;7693;49.266;7.104;2022-12-18T15:58:22;-2.60;99.90
15184;DHT22;7693;49.266;7.104;2022-12-18T16:00:47;-2.60;99.90
15184;DHT22;7693;49.266;7.104;2022-12-18T16:03:13;-2.60;99.90
15184;DHT22;7693;49.266;7.104;2022-12-18T16:05:38;-2.60;99.90
15184;DHT22;7693;49.266;7.104;2022-12-18T16:08:04;-2.60;99.90
15184;DHT22;7693;49.266;7.104;2022-12-18T16:10:30;-2.60;99.90
15184;DHT22;7693;49.266;7.104;2022-12-18T16:12:55;-2.60;99.90
15184;DHT22;7693;49.266;7.104;2022-12-18T16:15:21;-2.60;99.90
15184;DHT22;7693;49.266;7.104;2022-12-18T16:17:47;-2.60;99.90
15184;DHT22;7693;49.266;7.104;2022-12-18T16:20:15;-2.60;99.90
15184;DHT22;7693;49.266;7.104;2022-12-18T16:22:42;-2.60;99.90
15184;DHT22;7693;49.266;7.104;2022-12-18T16:25:20;-2.50;99.90
15184;DHT22;7693;49.266;7.104;2022-12-18T16:27:46;-2.50;99.90
15184;DHT22;7693;49.266;7.104;2022-12-18T16:30:14;-2.50;99.90
15184;DHT22;7693;49.266;7.104;2022-12-18T16:32:39;-2.50;99.90
15184;DHT22;7693;49.266;7.104;2022-12-18T16:35:05;-2.50;99.90
15184;DHT22;7693;49.266;7.104;2022-12-18T16:37:31;-2.50;99.90
15184;DHT22;7693;49.266;7.104;2022-12-18T16:39:56;-2.50;99.90
15184;DHT22;7693;49.266;7.104;2022-12-18T16:42:22;-2.50;99.90
15184;DHT22;7693;49.266;7.104;2022-12-18T16:44:48;-2.50;99.90
15184;DHT22;7693;49.266;7.104;2022-12-18T16:47:14;-2.50;99.90
15184;DHT22;7693;49.266;7.104;2022-12-18T16:49:40;-2.50;99.90
15184;DHT22;7693;49.266;7.104;2022-12-18T16:52:06;-2.40;99.90
15184;DHT22;7693;49.266;7.104;2022-12-18T16:54:32;-2.40;99.90
15184;DHT22;7693;49.266;7.104;2022-12-18T16:56:59;-2.40;99.90
15184;DHT22;7693;49.266;7.104;2022-12-18T16:59:26;-2.40;99.90
15184;DHT22;7693;49.266;7.104;2022-12-18T17:01:52;-2.40;99.90
15184;DHT22;7693;49.266;7.104;2022-12-18T17:04:17;-2.40;99.90
15184;DHT22;7693;49.266;7.104;2022-12-18T17:06:44;-2.30;99.90
15184;DHT22;7693;49.266;7.104;2022-12-18T17:09:16;-2.30;99.90
15184;DHT22;7693;49.266;7.104;2022-12-18T17:11:42;-2.30;99.90
15184;DHT22;7693;49.266;7.104;2022-12-18T17:14:13;-2.30;99.90
15184;DHT22;7693;49.266;7.104;2022-12-18T17:16:39;-2.30;99.90
15184;DHT22;7693;49.266;7.104;2022-12-18T17:19:05;-2.40;99.90
15184;DHT22;7693;49.266;7.104;2022-12-18T17:21:30;-2.40;99.90
15184;DHT22;7693;49.266;7.104;2022-12-18T17:23:59;-2.40;99.90
15184;DHT22;7693;49.266;7.104;2022-12-18T17:26:25;-2.30;99.90
15184;DHT22;7693;49.266;7.104;2022-12-18T17:28:50;-2.40;99.90
15184;DHT22;7693;49.266;7.104;2022-12-18T17:31:21;-2.30;99.90
15184;DHT22;7693;49.266;7.104;2022-12-18T17:33:47;-2.30;99.90
15184;DHT22;7693;49.266;7.104;2022-12-18T17:36:13;-2.30;99.90
15184;DHT22;7693;49.266;7.104;2022-12-18T17:38:40;-2.30;99.90
15184;DHT22;7693;49.266;7.104;2022-12-18T17:41:10;-2.20;99.90
15184;DHT22;7693;49.266;7.104;2022-12-18T17:43:36;-2.20;99.90
15184;DHT22;7693;49.266;7.104;2022-12-18T17:46:06;-2.20;99.90
15184;DHT22;7693;49.266;7.104;2022-12-18T17:48:34;-2.20;99.90
15184;DHT22;7693;49.266;7.104;2022-12-18T17:51:01;-2.20;99.90
15184;DHT22;7693;49.266;7.104;2022-12-18T17:53:27;-2.20;99.90
15184;DHT22;7693;49.266;7.104;2022-12-18T17:55:57;-2.10;99.90
15184;DHT22;7693;49.266;7.104;2022-12-18T17:58:25;-2.10;99.90
15184;DHT22;7693;49.266;7.104;2022-12-18T18:00:50;-2.10;99.90
15184;DHT22;7693;49.266;7.104;2022-12-18T18:03:16;-2.10;99.90
15184;DHT22;7693;49.266;7.104;2022-12-18T18:05:42;-2.10;99.90
15184;DHT22;7693;49.266;7.104;2022-12-18T18:08:07;-2.00;99.90
15184;DHT22;7693;49.266;7.104;2022-12-18T18:10:37;-2.00;99.90
15184;DHT22;7693;49.266;7.104;2022-12-18T18:13:16;-2.00;99.90
15184;DHT22;7693;49.266;7.104;2022-12-18T18:16:01;-2.00;99.90
15184;DHT22;7693;49.266;7.104;2022-12-18T18:18:28;-2.00;99.90
15184;DHT22;7693;49.266;7.104;2022-12-18T18:20:54;-2.00;99.90
15184;DHT22;7693;49.266;7.104;2022-12-18T18:23:19;-2.00;99.90
15184;DHT22;7693;49.266;7.104;2022-12-18T18:25:45;-2.00;99.90
15184;DHT22;7693;49.266;7.104;2022-12-18T18:28:11;-2.00;99.90
15184;DHT22;7693;49.266;7.104;2022-12-18T18:30:36;-2.00;99.90
15184;DHT22;7693;49.266;7.104;2022-12-18T18:33:02;-1.90;99.90
15184;DHT22;7693;49.266;7.104;2022-12-18T18:35:28;-1.90;99.90
15184;DHT22;7693;49.266;7.104;2022-12-18T18:37:53;-1.90;99.90
15184;DHT22;7693;49.266;7.104;2022-12-18T18:40:19;-1.90;99.90
15184;DHT22;7693;49.266;7.104;2022-12-18T18:42:46;-1.90;99.90
15184;DHT22;7693;49.266;7.104;2022-12-18T18:45:12;-1.90;99.90
15184;DHT22;7693;49.266;7.104;2022-12-18T18:47:37;-1.90;99.90
15184;DHT22;7693;49.266;7.104;2022-12-18T18:50:03;-1.90;99.90
15184;DHT22;7693;49.266;7.104;2022-12-18T18:52:29;-1.90;99.90
15184;DHT22;7693;49.266;7.104;2022-12-18T18:54:55;-1.80;99.90
15184;DHT22;7693;49.266;7.104;2022-12-18T18:57:20;-1.80;99.90
15184;DHT22;7693;49.266;7.104;2022-12-18T18:59:46;-1.80;99.90
15184;DHT22;7693;49.266;7.104;2022-12-18T19:02:13;-1.80;99.90
15184;DHT22;7693;49.266;7.104;2022-12-18T19:04:39;-1.80;99.90
15184;DHT22;7693;49.266;7.104;2022-12-18T19:07:05;-1.80;99.90
15184;DHT22;7693;49.266;7.104;2022-12-18T19:09:31;-1.80;99.90
15184;DHT22;7693;49.266;7.104;2022-12-18T19:11:57;-1.80;99.90
15184;DHT22;7693;49.266;7.104;2022-12-18T19:14:41;-1.80;99.90
15184;DHT22;7693;49.266;7.104;2022-12-18T19:17:07;-1.80;99.90
15184;DHT22;7693;49.266;7.104;2022-12-18T19:19:32;-1.80;99.90
15184;DHT22;7693;49.266;7.104;2022-12-18T19:21:58;-1.80;99.90
15184;DHT22;7693;49.266;7.104;2022-12-18T19:24:24;-1.90;99.90
15184;DHT22;7693;49.266;7.104;2022-12-18T19:26:49;-1.90;99.90
15184;DHT22;7693;49.266;7.104;2022-12-18T19:29:16;-1.90;99.90
15184;DHT22;7693;49.266;7.104;2022-12-18T19:31:42;-1.90;99.90
15184;DHT22;7693;49.266;7.104;2022-12-18T19:34:08;-1.90;99.90
15184;DHT22;7693;49.266;7.104;2022-12-18T19:36:36;-1.90;99.90
15184;DHT22;7693;49.266;7.104;2022-12-18T19:39:13;-1.90;99.90
15184;DHT22;7693;49.266;7.104;2022-12-18T19:41:39;-1.90;99.90
15184;DHT22;7693;49.266;7.104;2022-12-18T19:44:05;-1.90;99.90
15184;DHT22;7693;49.266;7.104;2022-12-18T19:46:31;-1.80;99.90
15184;DHT22;7693;49.266;7.104;2022-12-18T19:49:00;-1.80;99.90
15184;DHT22;7693;49.266;7.104;2022-12-18T19:51:27;-1.80;99.90
15184;DHT22;7693;49.266;7.104;2022-12-18T19:53:54;-1.80;99.90
15184;DHT22;7693;49.266;7.104;2022-12-18T19:56:22;-1.70;99.90
15184;DHT22;7693;49.266;7.104;2022-12-18T19:58:47;-1.70;99.90
15184;DHT22;7693;49.266;7.104;2022-12-18T20:01:15;-1.70;99.90
15184;DHT22;7693;49.266;7.104;2022-12-18T20:03:40;-1.70;99.90
15184;DHT22;7693;49.266;7.104;2022-12-18T20:08:51;-1.70;99.90
15184;DHT22;7693;49.266;7.104;2022-12-18T20:11:17;-1.70;99.90
15184;DHT22;7693;49.266;7.104;2022-12-18T20:13:43;-1.70;99.90
15184;DHT22;7693;49.266;7.104;2022-12-18T20:16:08;-1.70;99.90
15184;DHT22;7693;49.266;7.104;2022-12-18T20:18:35;-1.70;99.90
15184;DHT22;7693;49.266;7.104;2022-12-18T20:21:01;-1.60;99.90
15184;DHT22;7693;49.266;7.104;2022-12-18T20:23:26;-1.60;99.90
15184;DHT22;7693;49.266;7.104;2022-12-18T20:25:53;-1.60;99.90
15184;DHT22;7693;49.266;7.104;2022-12-18T20:28:21;-1.60;99.90
15184;DHT22;7693;49.266;7.104;2022-12-18T20:30:46;-1.60;99.90
15184;DHT22;7693;49.266;7.104;2022-12-18T20:33:12;-1.60;99.90
15184;DHT22;7693;49.266;7.104;2022-12-18T20:35:38;-1.60;99.90
15184;DHT22;7693;49.266;7.104;2022-12-18T20:38:03;-1.60;99.90
15184;DHT22;7693;49.266;7.104;2022-12-18T20:40:29;-1.50;99.90
15184;DHT22;7693;49.266;7.104;2022-12-18T20:42:55;-1.50;99.90
15184;DHT22;7693;49.266;7.104;2022-12-18T20:45:20;-1.50;99.90
15184;DHT22;7693;49.266;7.104;2022-12-18T20:47:46;-1.50;99.90
15184;DHT22;7693;49.266;7.104;2022-12-18T20:50:11;-1.50;99.90
15184;DHT22;7693;49.266;7.104;2022-12-18T20:52:37;-1.40;99.90
15184;DHT22;7693;49.266;7.104;2022-12-18T20:55:04;-1.40;99.90
15184;DHT22;7693;49.266;7.104;2022-12-18T20:57:30;-1.40;99.90
15184;DHT22;7693;49.266;7.104;2022-12-18T20:59:56;-1.40;99.90
15184;DHT22;7693;49.266;7.104;2022-12-18T21:02:21;-1.40;99.90
15184;DHT22;7693;49.266;7.104;2022-12-18T21:04:47;-1.40;99.90
15184;DHT22;7693;49.266;7.104;2022-12-18T21:07:13;-1.40;99.90
15184;DHT22;7693;49.266;7.104;2022-12-18T21:09:39;-1.30;99.90
15184;DHT22;7693;49.266;7.104;2022-12-18T21:12:13;-1.30;99.90
15184;DHT22;7693;49.266;7.104;2022-12-18T21:14:58;-1.30;99.90
15184;DHT22;7693;49.266;7.104;2022-12-18T21:17:25;-1.30;99.90
15184;DHT22;7693;49.266;7.104;2022-12-18T21:19:51;-1.30;99.90
15184;DHT22;7693;49.266;7.104;2022-12-18T21:22:16;-1.30;99.90
15184;DHT22;7693;49.266;7.104;2022-12-18T21:24:42;-1.30;99.90
15184;DHT22;7693;49.266;7.104;2022-12-18T21:27:07;-1.30;99.90
15184;DHT22;7693;49.266;7.104;2022-12-18T21:29:33;-1.30;99.90
15184;DHT22;7693;49.266;7.104;2022-12-18T21:31:59;-1.30;99.90
15184;DHT22;7693;49.266;7.104;2022-12-18T21:34:29;-1.30;99.90
15184;DHT22;7693;49.266;7.104;2022-12-18T21:36:56;-1.30;99.90
15184;DHT22;7693;49.266;7.104;2022-12-18T21:39:23;-1.20;99.90
15184;DHT22;7693;49.266;7.104;2022-12-18T21:41:49;-1.20;99.90
15184;DHT22;7693;49.266;7.104;2022-12-18T21:44:33;-1.20;99.90
15184;DHT22;7693;49.266;7.104;2022-12-18T21:46:59;-1.20;99.90
15184;DHT22;7693;49.266;7.104;2022-12-18T21:49:25;-1.20;99.90
15184;DHT22;7693;49.266;7.104;2022-12-18T21:51:53;-1.20;99.90
15184;DHT22;7693;49.266;7.104;2022-12-18T21:54:20;-1.20;99.90
15184;DHT22;7693;49.266;7.104;2022-12-18T22:02:13;-1.20;99.90
15184;DHT22;7693;49.266;7.104;2022-12-18T22:04:40;-1.20;99.90
15184;DHT22;7693;49.266;7.104;2022-12-18T22:07:06;-1.20;99.90
15184;DHT22;7693;49.266;7.104;2022-12-18T22:09:31;-1.20;99.90
15184;DHT22;7693;49.266;7.104;2022-12-18T22:11:57;-1.20;99.90
15184;DHT22;7693;49.266;7.104;2022-12-18T22:14:23;-1.20;99.90
15184;DHT22;7693;49.266;7.104;2022-12-18T22:16:49;-1.20;99.90
15184;DHT22;7693;49.266;7.104;2022-12-18T22:19:16;-1.20;99.90
15184;DHT22;7693;49.266;7.104;2022-12-18T22:21:44;-1.20;99.90
15184;DHT22;7693;49.266;7.104;2022-12-18T22:24:19;-1.20;99.90
15184;DHT22;7693;49.266;7.104;2022-12-18T22:26:46;-1.20;99.90
15184;DHT22;7693;49.266;7.104;2022-12-18T22:29:14;-1.20;99.90
15184;DHT22;7693;49.266;7.104;2022-12-18T22:31:58;-1.20;99.90
15184;DHT22;7693;49.266;7.104;2022-12-18T22:34:23;-1.20;99.90
15184;DHT22;7693;49.266;7.104;2022-12-18T22:36:49;-1.20;99.90
15184;DHT22;7693;49.266;7.104;2022-12-18T22:39:20;-1.30;99.90
15184;DHT22;7693;49.266;7.104;2022-12-18T22:41:46;-1.20;99.90
15184;DHT22;7693;49.266;7.104;2022-12-18T22:44:12;-1.20;99.90
15184;DHT22;7693;49.266;7.104;2022-12-18T22:46:41;-1.20;99.90
15184;DHT22;7693;49.266;7.104;2022-12-18T22:49:12;-1.20;99.90
15184;DHT22;7693;49.266;7.104;2022-12-18T22:51:38;-1.20;99.90
15184;DHT22;7693;49.266;7.104;2022-12-18T22:54:04;-1.20;99.90
15184;DHT22;7693;49.266;7.104;2022-12-18T22:56:29;-1.10;99.90
15184;DHT22;7693;49.266;7.104;2022-12-18T22:58:55;-1.10;99.90
15184;DHT22;7693;49.266;7.104;2022-12-18T23:01:22;-1.10;99.90
15184;DHT22;7693;49.266;7.104;2022-12-18T23:03:49;-1.10;99.90
15184;DHT22;7693;49.266;7.104;2022-12-18T23:06:15;-1.10;99.90
15184;DHT22;7693;49.266;7.104;2022-12-18T23:08:41;-1.00;99.90
15184;DHT22;7693;49.266;7.104;2022-12-18T23:11:08;-1.00;99.90
15184;DHT22;7693;49.266;7.104;2022-12-18T23:13:34;-1.00;99.90
15184;DHT22;7693;49.266;7.104;2022-12-18T23:16:03;-1.00;99.90
15184;DHT22;7693;49.266;7.104;2022-12-18T23:18:29;-1.00;99.90
15184;DHT22;7693;49.266;7.104;2022-12-18T23:20:55;-1.00;99.90
15184;DHT22;7693;49.266;7.104;2022-12-18T23:23:20;-1.00;99.90
15184;DHT22;7693;49.266;7.104;2022-12-18T23:25:46;-1.00;99.90
15184;DHT22;7693;49.266;7.104;2022-12-18T23:28:12;-1.00;99.90
15184;DHT22;7693;49.266;7.104;2022-12-18T23:30:37;-1.00;99.90
15184;DHT22;7693;49.266;7.104;2022-12-18T23:33:03;-1.00;99.90
15184;DHT22;7693;49.266;7.104;2022-12-18T23:35:29;-0.90;99.90
15184;DHT22;7693;49.266;7.104;2022-12-18T23:37:54;-0.90;99.90
15184;DHT22;7693;49.266;7.104;2022-12-18T23:40:20;-0.90;99.90
15184;DHT22;7693;49.266;7.104;2022-12-18T23:42:45;-1.00;99.90
15184;DHT22;7693;49.266;7.104;2022-12-18T23:45:11;-1.00;99.90
15184;DHT22;7693;49.266;7.104;2022-12-18T23:47:37;-1.00;99.90
15184;DHT22;7693;49.266;7.104;2022-12-18T23:50:02;-1.00;99.90
15184;DHT22;7693;49.266;7.104;2022-12-18T23:52:28;-1.00;99.90
15184;DHT22;7693;49.266;7.104;2022-12-18T23:54:54;-1.00;99.90
15184;DHT22;7693;49.266;7.104;2022-12-18T23:57:20;-1.00;99.90
15184;DHT22;7693;49.266;7.104;2022-12-18T23:59:46;-1.00;99.90
